Time;durP1;ratioP1;P1;durP2;ratioP2;P2;SDS_P1;SDS_P2;PMS_P1;PMS_P2;Temp;Humidity;BMP_temperature;BMP_pressure;BME280_temperature;BME280_humidity;BME280_pressure;Samples;Min_cycle;Max_cycle;Signal;HPM_P1;HPM_P2
2022/04/24 00:00:12;;;;;;;12.88;7.70;;;;;;;16.31;61.99;94585.41;5084979;28;20201;-75
2022/04/24 00:02:40;;;;;;;13.75;7.40;;;;;;;16.57;60.04;94586.28;5083670;28;20208;-75
2022/04/24 00:05:08;;;;;;;12.93;8.13;;;;;;;16.68;59.25;94593.31;5083744;28;20290;-75
2022/04/24 00:07:34;;;;;;;15.27;7.80;;;;;;;16.45;59.88;94591.38;5083708;28;20613;-75
2022/04/24 00:10:01;;;;;;;10.88;7.05;;;;;;;16.48;59.94;94591.19;5085002;28;20189;-75
2022/04/24 00:12:28;;;;;;;15.95;6.53;;;;;;;16.59;59.87;94583.59;5083640;28;20229;-75
2022/04/24 00:14:55;;;;;;;18.73;7.18;;;;;;;16.55;59.39;94587.31;5083944;28;20205;-77
2022/04/24 00:17:22;;;;;;;15.48;7.20;;;;;;;16.44;59.77;94590.53;5083985;28;20999;-75
2022/04/24 00:19:50;;;;;;;11.60;6.57;;;;;;;16.46;60.04;94593.84;5082143;28;20216;-75
2022/04/24 00:22:17;;;;;;;10.73;6.05;;;;;;;16.51;59.51;94601.25;5083519;28;20220;-75
2022/04/24 00:24:44;;;;;;;12.63;6.20;;;;;;;16.38;59.48;94600.38;5083590;28;20674;-74
2022/04/24 00:27:11;;;;;;;8.40;6.10;;;;;;;16.13;60.13;94591.66;5083354;28;20208;-74
2022/04/24 00:29:39;;;;;;;13.50;6.68;;;;;;;15.77;60.94;94591.38;5084017;28;20200;-75
2022/04/24 00:32:07;;;;;;;10.63;6.28;;;;;;;15.72;61.58;94598.53;5082954;28;20194;-75
2022/04/24 00:34:34;;;;;;;12.60;6.75;;;;;;;15.45;62.01;94599.25;5083296;28;20296;-77
2022/04/24 00:37:02;;;;;;;10.98;6.60;;;;;;;15.51;61.91;94596.31;5082778;28;20205;-77
2022/04/24 00:39:29;;;;;;;8.02;6.68;;;;;;;15.46;61.81;94588.09;5082391;28;20250;-75
2022/04/24 00:41:55;;;;;;;7.22;6.38;;;;;;;15.71;61.42;94599.44;5083499;28;20204;-75
2022/04/24 00:44:23;;;;;;;12.48;6.72;;;;;;;15.53;61.13;94591.94;5082672;28;20278;-77
2022/04/24 00:46:54;;;;;;;8.70;5.45;;;;;;;15.58;62.22;94596.81;5082547;27;20660;-75
2022/04/24 00:49:22;;;;;;;10.93;6.03;;;;;;;15.52;61.90;94590.28;5082138;28;20250;-75
2022/04/24 00:51:50;;;;;;;7.00;5.60;;;;;;;15.35;61.87;94598.13;5081931;28;20201;-75
2022/04/24 00:54:18;;;;;;;8.07;6.20;;;;;;;15.37;62.75;94601.44;5083790;28;20240;-75
2022/04/24 00:56:45;;;;;;;21.60;12.68;;;;;;;15.59;61.86;94601.81;5082138;28;20205;-75
2022/04/24 00:59:14;;;;;;;28.63;17.50;;;;;;;15.77;61.09;94606.75;5081544;28;20561;-75
2022/04/24 01:01:41;;;;;;;18.45;12.35;;;;;;;15.55;61.48;94604.66;5082789;28;20282;-75
2022/04/24 01:04:10;;;;;;;10.20;8.20;;;;;;;15.53;62.45;94607.28;5082684;28;20276;-75
2022/04/24 01:06:40;;;;;;;9.48;6.95;;;;;;;15.42;62.27;94609.66;5083133;28;20217;-76
2022/04/24 01:09:12;;;;;;;11.02;6.43;;;;;;;15.59;61.70;94606.94;5081721;28;20200;-77
2022/04/24 01:11:41;;;;;;;8.90;5.72;;;;;;;15.64;61.43;94599.81;5080740;28;20739;-75
2022/04/24 01:14:08;;;;;;;10.77;5.75;;;;;;;15.81;61.54;94605.66;5080053;28;20236;-75
2022/04/24 01:16:36;;;;;;;7.88;5.38;;;;;;;15.83;60.64;94603.84;5080176;28;20309;-75
2022/04/24 01:19:04;;;;;;;11.68;6.07;;;;;;;15.93;59.96;94605.72;5076906;28;20193;-77
2022/04/24 01:21:32;;;;;;;5.75;5.25;;;;;;;16.01;60.27;94615.50;5080664;28;21473;-75
2022/04/24 01:23:59;;;;;;;7.63;5.78;;;;;;;16.11;59.99;94616.56;5079368;28;20236;-75
2022/04/24 01:26:25;;;;;;;7.65;5.28;;;;;;;16.22;59.38;94619.28;5080878;28;20635;-77
2022/04/24 01:28:52;;;;;;;7.82;5.15;;;;;;;16.39;58.70;94617.41;5080709;28;20704;-77
2022/04/24 01:31:19;;;;;;;8.90;4.72;;;;;;;16.43;58.24;94626.56;5082413;28;20223;-75
2022/04/24 01:33:46;;;;;;;7.22;5.45;;;;;;;16.36;57.99;94618.41;5082045;28;20321;-76
2022/04/24 01:36:13;;;;;;;6.65;5.63;;;;;;;16.12;58.56;94625.91;5081515;28;21087;-75
2022/04/24 01:38:42;;;;;;;6.50;5.88;;;;;;;15.97;59.04;94627.69;5082373;28;20672;-75
2022/04/24 01:41:09;;;;;;;8.18;5.25;;;;;;;15.89;59.62;94629.88;5081935;28;20228;-75
2022/04/24 01:43:36;;;;;;;14.90;5.90;;;;;;;15.93;59.66;94620.28;5082074;28;20197;-75
2022/04/24 01:46:04;;;;;;;9.40;5.55;;;;;;;16.13;59.00;94631.84;5082413;28;20718;-75
2022/04/24 01:48:33;;;;;;;10.63;5.38;;;;;;;16.10;58.35;94632.03;5082116;28;20216;-75
2022/04/24 01:51:00;;;;;;;7.25;4.72;;;;;;;16.02;58.57;94627.41;5082169;28;20291;-75
2022/04/24 01:53:28;;;;;;;5.00;4.50;;;;;;;15.97;59.19;94637.94;5080664;28;20270;-75
2022/04/24 01:55:57;;;;;;;9.75;5.25;;;;;;;16.03;58.21;94636.75;5082893;28;20274;-75
2022/04/24 01:58:24;;;;;;;7.18;4.75;;;;;;;15.69;58.57;94627.72;5081803;28;20209;-75
2022/04/24 02:00:51;;;;;;;6.95;4.55;;;;;;;15.41;59.94;94638.75;5083093;28;20229;-76
2022/04/24 02:03:19;;;;;;;9.02;5.20;;;;;;;15.28;60.49;94637.84;5085257;28;20197;-74
2022/04/24 02:05:46;;;;;;;7.38;5.40;;;;;;;15.35;60.20;94628.03;5086218;28;20200;-74
2022/04/24 02:08:13;;;;;;;10.88;5.55;;;;;;;15.29;60.64;94630.06;5085990;28;20604;-76
2022/04/24 02:10:41;;;;;;;7.75;4.28;;;;;;;15.32;60.44;94617.09;5086768;28;20654;-74
2022/04/24 02:13:10;;;;;;;11.10;5.50;;;;;;;15.40;59.54;94637.09;5085653;28;20282;-75
2022/04/24 02:15:37;;;;;;;8.63;5.40;;;;;;;14.88;60.90;94632.44;5086508;28;20204;-74
2022/04/24 02:18:04;;;;;;;5.50;5.00;;;;;;;14.76;61.74;94635.72;5086448;28;20228;-74
2022/04/24 02:20:31;;;;;;;6.72;4.65;;;;;;;14.47;62.53;94639.88;5085160;28;20740;-75
2022/04/24 02:22:59;;;;;;;6.88;5.10;;;;;;;14.18;63.43;94638.88;5085340;27;20755;-76
2022/04/24 02:25:26;;;;;;;5.95;4.25;;;;;;;14.11;63.82;94639.28;5086761;28;20723;-74
2022/04/24 02:27:54;;;;;;;9.38;4.70;;;;;;;14.11;64.06;94644.41;5086158;28;20201;-75
2022/04/24 02:30:22;;;;;;;8.00;4.30;;;;;;;14.39;63.64;94643.72;5085986;28;20208;-75
2022/04/24 02:32:49;;;;;;;6.53;4.15;;;;;;;14.19;63.65;94645.66;5084718;28;20240;-76
2022/04/24 02:35:16;;;;;;;8.07;4.25;;;;;;;14.07;63.79;94651.44;5086422;28;20235;-75
2022/04/24 02:37:44;;;;;;;4.88;4.40;;;;;;;14.28;63.52;94642.59;5083920;28;20341;-75
2022/04/24 02:40:11;;;;;;;3.97;3.63;;;;;;;14.36;63.35;94646.47;5085166;28;20201;-75
2022/04/24 02:42:39;;;;;;;7.63;4.20;;;;;;;14.28;63.40;94637.50;5085019;28;20630;-76
2022/04/24 02:45:07;;;;;;;6.65;3.88;;;;;;;14.57;63.32;94647.88;5085385;28;20209;-77
2022/04/24 02:47:35;;;;;;;9.00;4.05;;;;;;;14.62;62.06;94643.31;5084888;28;20196;-75
2022/04/24 02:50:02;;;;;;;4.03;3.53;;;;;;;14.56;62.64;94641.94;5084791;28;20280;-75
2022/04/24 02:52:29;;;;;;;5.82;3.97;;;;;;;14.68;63.10;94642.97;5085718;28;20206;-75
2022/04/24 02:54:56;;;;;;;11.98;4.22;;;;;;;15.05;62.30;94643.47;5085848;28;20236;-75
2022/04/24 02:57:23;;;;;;;7.10;4.15;;;;;;;15.35;61.68;94651.06;5085240;28;20202;-75
2022/04/24 02:59:49;;;;;;;7.30;4.32;;;;;;;15.63;60.26;94656.25;5085502;28;20216;-75
2022/04/24 03:02:17;;;;;;;5.43;4.22;;;;;;;15.77;59.70;94650.31;5083840;28;20197;-76
2022/04/24 03:04:46;;;;;;;6.50;4.80;;;;;;;15.69;59.44;94647.38;5084179;28;20193;-75
2022/04/24 03:07:13;;;;;;;9.18;4.55;;;;;;;15.67;59.69;94659.44;5083782;28;20688;-75
2022/04/24 03:09:41;;;;;;;9.43;3.92;;;;;;;15.94;59.31;94660.34;5085776;28;20254;-75
2022/04/24 03:12:09;;;;;;;4.35;4.05;;;;;;;16.34;58.20;94661.28;5085468;28;20608;-75
2022/04/24 03:14:35;;;;;;;5.75;4.78;;;;;;;16.06;57.52;94654.50;5082202;28;20312;-75
2022/04/24 03:17:02;;;;;;;6.03;5.07;;;;;;;15.78;57.84;94657.09;5084765;28;20197;-76
2022/04/24 03:19:29;;;;;;;9.68;4.95;;;;;;;15.36;59.09;94663.78;5084264;28;20209;-75
2022/04/24 03:21:57;;;;;;;4.43;4.03;;;;;;;15.46;59.12;94664.91;5085850;28;20201;-74
2022/04/24 03:24:24;;;;;;;6.72;5.13;;;;;;;15.35;59.45;94669.81;5084627;28;20244;-76
2022/04/24 03:26:51;;;;;;;9.80;4.78;;;;;;;15.19;59.95;94671.63;5082718;28;20197;-75
2022/04/24 03:29:18;;;;;;;35.58;19.42;;;;;;;15.07;60.35;94674.91;5083695;28;20201;-76
2022/04/24 03:31:44;;;;;;;29.17;17.60;;;;;;;15.15;60.01;94670.97;5083881;28;20500;-75
2022/04/24 03:34:11;;;;;;;15.77;8.52;;;;;;;15.17;59.88;94676.84;5080497;28;20237;-74
2022/04/24 03:36:38;;;;;;;13.73;9.63;;;;;;;15.10;59.94;94675.53;5085396;28;20201;-76
2022/04/24 03:39:06;;;;;;;10.23;5.18;;;;;;;13.40;65.25;94677.09;5084599;28;21159;-75
2022/04/24 03:41:33;;;;;;;10.75;6.55;;;;;;;13.70;64.94;94672.16;5084613;28;20205;-75
2022/04/24 03:44:00;;;;;;;9.55;5.93;;;;;;;13.40;66.24;94675.38;5083315;28;20197;-74
2022/04/24 03:46:27;;;;;;;7.20;5.60;;;;;;;13.35;66.22;94672.25;5084480;28;20254;-74
2022/04/24 03:48:53;;;;;;;11.18;8.55;;;;;;;13.69;65.88;94675.59;5084178;28;20204;-76
2022/04/24 03:51:20;;;;;;;7.32;6.20;;;;;;;13.99;64.60;94674.00;5084445;28;20555;-75
2022/04/24 03:53:47;;;;;;;12.00;6.82;;;;;;;13.78;65.63;94685.34;5084286;28;20617;-75
2022/04/24 03:56:15;;;;;;;8.82;6.90;;;;;;;14.11;64.99;94688.66;5082937;28;20239;-75
2022/04/24 03:58:42;;;;;;;9.25;6.22;;;;;;;14.41;63.91;94668.34;5083116;28;20618;-75
2022/04/24 04:01:08;;;;;;;10.02;5.93;;;;;;;14.59;62.63;94685.25;5083848;28;20201;-74
2022/04/24 04:03:35;;;;;;;12.90;6.10;;;;;;;14.79;61.86;94683.31;5083703;28;20202;-75
2022/04/24 04:06:02;;;;;;;8.05;5.88;;;;;;;14.78;61.50;94679.94;5083573;28;20197;-77
2022/04/24 04:08:28;;;;;;;16.38;6.70;;;;;;;14.73;61.67;94684.47;5083954;28;20287;-75
2022/04/24 04:10:55;;;;;;;8.02;7.10;;;;;;;15.08;61.46;94682.50;5082527;28;20624;-76
2022/04/24 04:13:23;;;;;;;12.40;6.43;;;;;;;15.11;60.39;94681.47;5082586;28;20883;-76
2022/04/24 04:15:50;;;;;;;9.35;6.63;;;;;;;15.03;61.48;94688.78;5082437;28;20205;-75
2022/04/24 04:18:17;;;;;;;13.95;6.75;;;;;;;15.26;60.98;94690.84;5083898;28;20209;-77
2022/04/24 04:20:44;;;;;;;9.18;6.40;;;;;;;15.94;59.38;94693.66;5081423;28;20223;-74
2022/04/24 04:23:11;;;;;;;15.60;6.72;;;;;;;16.79;56.88;94683.25;5079612;28;20198;-76
2022/04/24 04:25:38;;;;;;;125.60;66.32;;;;;;;17.81;54.58;94691.13;5083028;28;20241;-75
2022/04/24 04:28:05;;;;;;;19.52;12.80;;;;;;;18.79;51.58;94692.88;5084103;28;20273;-79
2022/04/24 04:30:33;;;;;;;13.07;8.15;;;;;;;19.55;49.56;94697.63;5082301;28;20189;-76
2022/04/24 04:33:00;;;;;;;19.90;10.05;;;;;;;20.23;47.86;94700.13;5081097;28;20214;-76
2022/04/24 04:35:27;;;;;;;9.73;7.20;;;;;;;20.34;46.75;94684.63;5082721;28;20225;-75
2022/04/24 04:37:54;;;;;;;14.13;7.75;;;;;;;20.81;46.30;94700.75;5082328;28;20202;-75
2022/04/24 04:40:21;;;;;;;7.90;5.53;;;;;;;20.64;45.40;94698.69;5082853;28;20201;-76
2022/04/24 04:42:49;;;;;;;8.15;5.22;;;;;;;21.39;44.70;94709.03;5083835;28;20297;-77
2022/04/24 04:45:16;;;;;;;8.95;5.70;;;;;;;21.66;43.44;94703.34;5080360;28;20284;-78
2022/04/24 04:47:45;;;;;;;6.25;5.32;;;;;;;21.64;43.49;94711.22;5082632;28;20259;-75
2022/04/24 04:50:11;;;;;;;7.80;4.97;;;;;;;21.32;44.05;94707.88;5082528;28;20205;-75
2022/04/24 04:52:39;;;;;;;8.02;7.20;;;;;;;21.63;43.31;94707.00;5082328;28;20676;-76
2022/04/24 04:55:07;;;;;;;14.80;9.65;;;;;;;21.73;42.94;94713.06;5083560;28;20220;-75
2022/04/24 04:57:34;;;;;;;13.05;8.45;;;;;;;22.58;41.47;94710.19;5081108;28;20236;-76
2022/04/24 05:00:01;;;;;;;11.32;6.50;;;;;;;22.67;40.67;94711.16;5083012;28;20257;-75
2022/04/24 05:02:28;;;;;;;9.32;6.28;;;;;;;23.37;39.88;94710.16;5082744;28;20258;-77
2022/04/24 05:04:56;;;;;;;9.13;5.25;;;;;;;23.92;38.60;94700.84;5082587;28;20554;-75
2022/04/24 05:07:23;;;;;;;7.80;5.78;;;;;;;25.43;36.39;94700.31;5081680;28;20751;-75
2022/04/24 05:09:50;;;;;;;8.38;5.00;;;;;;;26.82;33.69;94704.53;5081582;28;20688;-75
2022/04/24 05:12:17;;;;;;;6.97;4.80;;;;;;;27.66;31.71;94701.75;5081413;28;20197;-76
2022/04/24 05:14:43;;;;;;;4.53;4.13;;;;;;;28.73;29.60;94697.91;5080959;28;20258;-76
2022/04/24 05:17:10;;;;;;;5.30;4.80;;;;;;;30.65;28.12;94691.47;5079566;28;20193;-76
2022/04/24 05:19:37;;;;;;;8.20;5.50;;;;;;;31.99;26.38;94696.88;5081655;28;20201;-77
2022/04/24 05:22:05;;;;;;;6.18;5.28;;;;;;;33.19;25.25;94696.50;5081404;28;20258;-76
2022/04/24 05:24:32;;;;;;;5.85;4.97;;;;;;;33.05;24.37;94703.56;5081569;28;20642;-75
2022/04/24 05:27:00;;;;;;;6.50;5.03;;;;;;;33.62;23.77;94710.19;5082306;28;20205;-75
2022/04/24 05:29:27;;;;;;;5.55;5.00;;;;;;;34.28;23.65;94698.81;5082204;28;21631;-76
2022/04/24 05:31:54;;;;;;;5.65;5.00;;;;;;;33.82;22.78;94706.78;5082077;28;20200;-76
2022/04/24 05:34:20;;;;;;;6.07;5.60;;;;;;;34.79;22.72;94698.94;5081682;28;20225;-75
2022/04/24 05:36:47;;;;;;;9.18;6.07;;;;;;;35.36;21.63;94698.09;5081808;28;20261;-76
2022/04/24 05:39:15;;;;;;;8.55;5.60;;;;;;;34.28;23.24;94688.28;5082191;28;20680;-75
2022/04/24 05:41:42;;;;;;;5.75;5.25;;;;;;;35.25;22.44;94689.97;5081074;28;20208;-76
2022/04/24 05:44:09;;;;;;;8.98;5.60;;;;;;;33.44;23.88;94699.41;5082228;28;20261;-76
2022/04/24 05:46:35;;;;;;;7.68;5.85;;;;;;;30.66;26.80;94690.47;5082294;28;20244;-77
2022/04/24 05:49:02;;;;;;;5.43;5.00;;;;;;;32.08;25.62;94700.19;5082177;28;20201;-76
2022/04/24 05:51:29;;;;;;;5.68;5.20;;;;;;;29.94;27.76;94687.63;5081735;28;20668;-77
2022/04/24 05:53:56;;;;;;;6.18;5.43;;;;;;;31.48;26.22;94688.34;5082126;28;20229;-76
2022/04/24 05:56:24;;;;;;;6.53;4.97;;;;;;;32.69;25.23;94692.44;5081483;28;20197;-76
2022/04/24 05:58:51;;;;;;;6.80;6.28;;;;;;;34.16;22.42;94687.25;5082369;28;20216;-75
2022/04/24 06:01:18;;;;;;;6.57;5.80;;;;;;;35.14;21.40;94689.63;5080969;28;20204;-79
2022/04/24 06:03:45;;;;;;;8.65;5.65;;;;;;;36.13;21.89;94693.47;5081291;28;20275;-76
2022/04/24 06:06:12;;;;;;;10.23;6.60;;;;;;;35.43;21.50;94690.09;5081297;28;20257;-76
2022/04/24 06:08:39;;;;;;;13.27;7.57;;;;;;;35.03;22.26;94692.94;5082412;28;20265;-76
2022/04/24 06:11:06;;;;;;;7.40;5.97;;;;;;;34.08;22.66;94696.22;5081421;28;22075;-76
2022/04/24 06:13:34;;;;;;;7.03;6.43;;;;;;;32.71;24.46;94682.53;5082836;28;20648;-76
2022/04/24 06:16:00;;;;;;;8.32;6.30;;;;;;;30.79;26.86;94683.56;5081025;28;20279;-77
2022/04/24 06:18:28;;;;;;;12.13;7.10;;;;;;;29.77;27.96;94686.94;5081801;28;20197;-76
2022/04/24 06:20:55;;;;;;;11.85;7.45;;;;;;;30.12;28.36;94690.72;5081215;28;20659;-77
2022/04/24 06:23:24;;;;;;;9.77;6.68;;;;;;;30.61;27.42;94674.47;5081070;28;20197;-76
2022/04/24 06:25:51;;;;;;;7.60;6.82;;;;;;;31.44;26.63;94681.84;5082172;28;20225;-79
2022/04/24 06:28:18;;;;;;;8.00;7.15;;;;;;;31.21;27.01;94670.72;5081588;28;20201;-76
2022/04/24 06:30:47;;;;;;;9.25;6.93;;;;;;;32.99;24.40;94672.75;5081863;28;20260;-76
2022/04/24 06:33:15;;;;;;;9.25;6.20;;;;;;;33.26;24.43;94672.81;5082861;28;20205;-76
2022/04/24 06:35:42;;;;;;;9.23;7.53;;;;;;;31.79;25.65;94673.09;5081830;28;20220;-75
2022/04/24 06:38:09;;;;;;;7.50;6.65;;;;;;;31.63;26.38;94673.34;5082146;28;20267;-76
2022/04/24 06:40:36;;;;;;;8.20;6.15;;;;;;;32.72;25.33;94682.34;5080195;28;20197;-75
2022/04/24 06:43:05;;;;;;;8.15;7.35;;;;;;;32.76;24.60;94674.91;5080491;28;20205;-76
2022/04/24 06:45:33;;;;;;;8.48;6.82;;;;;;;33.55;24.21;94683.00;5081540;28;20205;-76
2022/04/24 06:48:04;;;;;;;6.97;6.10;;;;;;;32.54;24.79;94678.63;5080295;28;21022;-76
2022/04/24 06:50:32;;;;;;;11.63;6.35;;;;;;;32.81;25.04;94683.03;5083040;28;20272;-76
2022/04/24 06:53:00;;;;;;;10.18;5.63;;;;;;;31.33;25.99;94679.72;5082379;28;20665;-77
2022/04/24 06:55:28;;;;;;;5.13;4.75;;;;;;;32.02;25.45;94669.41;5083407;28;21512;-75
2022/04/24 06:57:55;;;;;;;12.45;6.38;;;;;;;31.77;25.95;94671.63;5083077;28;20205;-75
2022/04/24 07:00:23;;;;;;;5.60;4.82;;;;;;;31.40;26.22;94662.22;5084381;28;20204;-75
2022/04/24 07:02:50;;;;;;;15.93;12.52;;;;;;;32.16;25.26;94659.78;5083922;28;20232;-75
2022/04/24 07:05:21;;;;;;;7.65;4.13;;;;;;;31.20;26.41;94653.31;5084860;28;20201;-75
2022/04/24 07:07:48;;;;;;;3.30;3.00;;;;;;;28.80;29.09;94667.47;5084554;28;20201;-75
2022/04/24 07:10:15;;;;;;;4.43;3.95;;;;;;;28.80;29.82;94662.22;5083743;28;20213;-75
2022/04/24 07:12:46;;;;;;;7.45;4.40;;;;;;;27.51;30.75;94645.94;5083899;28;20205;-76
2022/04/24 07:15:13;;;;;;;4.88;4.13;;;;;;;28.09;31.04;94652.72;5085430;28;20232;-76
2022/04/24 07:17:41;;;;;;;7.82;4.43;;;;;;;28.81;29.61;94642.16;5083994;28;20262;-75
2022/04/24 07:20:09;;;;;;;6.93;4.38;;;;;;;28.68;29.40;94653.16;5084831;28;20276;-75
2022/04/24 07:22:48;;;;;;;5.22;3.47;;;;;;;27.69;30.56;94654.44;5084515;28;20261;-77
2022/04/24 07:25:16;;;;;;;7.57;3.70;;;;;;;26.50;31.83;94647.06;5081857;28;20229;-75
2022/04/24 07:27:43;;;;;;;5.25;4.10;;;;;;;25.33;34.41;94649.31;5083084;28;20202;-75
2022/04/24 07:30:14;;;;;;;4.75;4.07;;;;;;;25.11;34.86;94649.78;5083934;28;20682;-74
2022/04/24 07:32:42;;;;;;;5.97;4.32;;;;;;;25.24;36.20;94645.03;5084893;28;20297;-74
2022/04/24 07:35:13;;;;;;;5.20;4.32;;;;;;;25.32;34.74;94647.69;5082589;28;21013;-75
2022/04/24 07:37:41;;;;;;;5.05;3.78;;;;;;;26.00;34.76;94635.63;5085084;28;20227;-76
2022/04/24 07:40:11;;;;;;;9.23;4.82;;;;;;;25.68;34.98;94645.88;5082870;28;20923;-76
2022/04/24 07:42:46;;;;;;;5.22;4.80;;;;;;;26.37;33.69;94631.91;5083605;28;20633;-74
2022/04/24 07:45:18;;;;;;;15.77;4.68;;;;;;;26.66;33.22;94640.13;5083540;28;20238;-75
2022/04/24 07:47:46;;;;;;;7.72;4.80;;;;;;;26.89;32.98;94635.13;5084003;28;20201;-74
2022/04/24 07:50:13;;;;;;;5.53;4.20;;;;;;;27.17;33.04;94634.88;5084262;28;20201;-77
2022/04/24 07:52:40;;;;;;;4.88;4.47;;;;;;;26.25;34.48;94639.16;5082769;28;20197;-76
2022/04/24 07:55:11;;;;;;;5.57;5.07;;;;;;;25.48;35.29;94634.00;5083753;28;20221;-76
2022/04/24 07:57:37;;;;;;;7.82;4.07;;;;;;;24.89;35.64;94640.63;5084623;28;20189;-75
2022/04/24 08:00:06;;;;;;;5.35;3.33;;;;;;;25.00;35.52;94635.22;5082962;28;20569;-77
2022/04/24 08:02:32;;;;;;;4.43;3.10;;;;;;;24.54;35.75;94623.22;5081570;28;20205;-75
2022/04/24 08:04:59;;;;;;;163.77;95.22;;;;;;;24.46;36.79;94617.94;5082016;28;20201;-78
2022/04/24 08:07:26;;;;;;;14.93;10.50;;;;;;;24.11;36.95;94616.88;5084151;28;20254;-81
2022/04/24 08:09:53;;;;;;;7.70;4.00;;;;;;;24.26;37.85;94625.81;5082367;28;20204;-79
2022/04/24 08:12:21;;;;;;;7.68;3.92;;;;;;;23.76;38.57;94622.75;5080876;28;20259;-78
2022/04/24 08:14:48;;;;;;;6.47;4.05;;;;;;;23.90;39.02;94613.69;5080130;28;20245;-78
2022/04/24 08:17:14;;;;;;;7.38;6.00;;;;;;;23.99;38.89;94607.66;5081698;28;20209;-79
2022/04/24 08:19:41;;;;;;;8.85;6.30;;;;;;;24.61;38.11;94587.91;5082951;28;20756;-79
2022/04/24 08:22:08;;;;;;;11.13;7.43;;;;;;;25.47;36.89;94591.56;5083053;28;20197;-77
2022/04/24 08:24:34;;;;;;;120.68;69.10;;;;;;;25.39;35.89;94596.69;5083263;28;20228;-79
2022/04/24 08:27:01;;;;;;;9.20;7.40;;;;;;;24.72;36.76;94585.09;5080422;28;20197;-79
2022/04/24 08:29:29;;;;;;;7.22;3.40;;;;;;;23.81;37.50;94592.00;5079039;28;21130;-77
2022/04/24 08:31:56;;;;;;;13.20;6.85;;;;;;;24.32;37.48;94586.31;5081777;28;20669;-77
2022/04/24 08:34:23;;;;;;;12.77;8.60;;;;;;;24.68;37.40;94573.34;5083572;28;20203;-78
2022/04/24 08:36:50;;;;;;;9.63;4.88;;;;;;;25.22;37.10;94572.38;5084112;28;20228;-78
2022/04/24 08:39:16;;;;;;;4.00;3.53;;;;;;;25.49;35.63;94578.41;5083879;28;20696;-74
2022/04/24 08:41:44;;;;;;;8.65;6.70;;;;;;;25.96;34.97;94571.00;5082761;28;20629;-76
2022/04/24 08:44:11;;;;;;;7.85;3.58;;;;;;;26.11;35.26;94582.44;5082164;28;20262;-76
2022/04/24 08:46:39;;;;;;;5.82;4.45;;;;;;;26.29;35.26;94580.56;5084079;28;20205;-74
2022/04/24 08:49:09;;;;;;;4.22;3.33;;;;;;;25.93;35.17;94577.34;5083450;28;20197;-73
2022/04/24 08:51:38;;;;;;;2.85;2.60;;;;;;;25.66;35.40;94574.94;5083887;28;20286;-74
2022/04/24 08:54:05;;;;;;;10.20;3.42;;;;;;;25.68;35.18;94568.59;5083761;28;20230;-74
2022/04/24 08:56:32;;;;;;;4.80;3.15;;;;;;;25.97;35.80;94575.25;5079416;28;20260;-74
2022/04/24 08:58:59;;;;;;;4.60;2.58;;;;;;;25.32;35.00;94567.88;5083033;28;22562;-75
2022/04/24 09:01:25;;;;;;;7.15;2.88;;;;;;;24.95;36.39;94564.69;5081775;28;20258;-76
2022/04/24 09:03:53;;;;;;;3.42;3.13;;;;;;;24.88;36.49;94567.03;5083648;28;20201;-74
2022/04/24 09:06:22;;;;;;;3.65;2.58;;;;;;;25.41;36.51;94559.16;5081976;27;21606;-75
2022/04/24 09:08:49;;;;;;;9.90;2.40;;;;;;;25.64;36.18;94556.06;5083499;28;20680;-76
2022/04/24 09:11:19;;;;;;;3.55;2.15;;;;;;;25.14;35.16;94556.69;5082995;28;20210;-77
2022/04/24 09:16:35;;;;;;;3.25;2.30;;;;;;;25.07;35.23;94545.25;5080686;28;20239;-76
2022/04/24 09:19:04;;;;;;;3.63;2.28;;;;;;;25.27;35.46;94538.88;5082357;28;20200;-75
2022/04/24 09:21:31;;;;;;;3.47;2.13;;;;;;;25.36;34.48;94537.16;5082507;28;20229;-76
2022/04/24 09:24:01;;;;;;;3.80;1.90;;;;;;;25.08;34.93;94544.28;5082991;28;20256;-73
2022/04/24 09:26:28;;;;;;;4.47;1.67;;;;;;;25.29;34.23;94536.97;5082769;28;20714;-73
2022/04/24 09:28:55;;;;;;;4.63;2.00;;;;;;;25.42;34.23;94531.34;5086814;28;20216;-75
2022/04/24 09:31:29;;;;;;;3.75;1.83;;;;;;;25.39;34.59;94516.88;5093193;28;20197;-76
2022/04/24 09:33:56;;;;;;;4.95;2.30;;;;;;;25.47;34.88;94517.91;5083078;28;20209;-74
2022/04/24 09:36:26;;;;;;;2.13;1.67;;;;;;;24.89;34.02;94519.28;5081273;28;20240;-73
2022/04/24 09:38:53;;;;;;;4.15;2.70;;;;;;;25.21;33.86;94507.50;5077476;28;20733;-75
2022/04/24 09:41:22;;;;;;;2.92;1.75;;;;;;;25.64;33.92;94517.84;5077531;28;20886;-74
2022/04/24 09:43:49;;;;;;;3.05;2.15;;;;;;;25.79;33.71;94502.44;5080953;28;20197;-76
2022/04/24 09:46:25;;;;;;;6.15;2.00;;;;;;;24.87;34.03;94513.41;5078842;28;20270;-76
2022/04/24 09:48:53;;;;;;;4.65;1.65;;;;;;;24.82;35.13;94509.63;5082941;28;20599;-75
2022/04/24 09:51:21;;;;;;;2.42;1.35;;;;;;;24.47;35.31;94513.09;5082996;28;21078;-75
2022/04/24 09:53:52;;;;;;;2.05;1.70;;;;;;;24.72;35.29;94497.56;5081677;28;20472;-76
2022/04/24 09:56:19;;;;;;;9.60;1.85;;;;;;;25.20;34.43;94487.66;5081446;28;20771;-76
2022/04/24 09:58:46;;;;;;;1.80;1.48;;;;;;;25.47;35.12;94482.28;5080909;28;20202;-76
2022/04/24 10:01:14;;;;;;;2.97;1.58;;;;;;;25.30;34.37;94483.97;5080202;28;20746;-75
2022/04/24 10:03:41;;;;;;;3.85;2.13;;;;;;;25.19;34.47;94483.44;5083332;28;20204;-76
2022/04/24 10:06:10;;;;;;;4.40;1.77;;;;;;;25.82;34.39;94480.47;5082129;28;20208;-76
2022/04/24 10:08:36;;;;;;;6.93;2.13;;;;;;;25.64;33.82;94473.59;5081883;28;20881;-75
2022/04/24 10:11:07;;;;;;;3.20;1.70;;;;;;;25.87;34.53;94468.63;5081523;28;20847;-75
2022/04/24 10:13:37;;;;;;;4.07;1.75;;;;;;;26.12;32.71;94464.28;5080704;28;20202;-75
2022/04/24 10:16:15;;;;;;;3.50;2.00;;;;;;;26.03;33.60;94460.84;5081183;28;20238;-76
2022/04/24 10:18:53;;;;;;;7.00;1.80;;;;;;;25.68;33.09;94456.72;5079661;28;20209;-75
2022/04/24 10:21:35;;;;;;;5.18;1.73;;;;;;;25.89;33.65;94455.47;5081869;28;20583;-75
2022/04/24 10:24:09;;;;;;;2.03;1.60;;;;;;;26.14;33.80;94449.31;5080800;28;20193;-76
2022/04/24 10:26:37;;;;;;;5.10;1.67;;;;;;;25.79;33.21;94458.19;5084520;28;20209;-75
2022/04/24 10:29:07;;;;;;;3.30;1.80;;;;;;;25.70;33.85;94452.16;5083827;28;20224;-75
2022/04/24 10:31:43;;;;;;;2.83;2.63;;;;;;;25.36;34.10;94449.53;5086403;28;20197;-75
2022/04/24 10:34:11;;;;;;;4.30;2.00;;;;;;;25.75;33.50;94449.88;5085619;28;20203;-74
2022/04/24 10:36:38;;;;;;;5.10;2.75;;;;;;;25.57;33.35;94449.13;5086475;28;20248;-75
2022/04/24 10:39:17;;;;;;;4.18;1.83;;;;;;;25.45;33.77;94445.22;5084067;28;20208;-74
2022/04/24 10:41:54;;;;;;;3.22;2.03;;;;;;;25.41;33.73;94446.47;5086048;28;20204;-74
2022/04/24 10:44:22;;;;;;;3.25;2.03;;;;;;;25.72;34.09;94447.63;5085318;28;20739;-75
2022/04/24 10:46:50;;;;;;;4.47;1.40;;;;;;;25.86;33.06;94430.56;5084867;28;20725;-75
2022/04/24 10:49:19;;;;;;;5.28;1.75;;;;;;;25.69;33.67;94440.13;5083669;28;20209;-75
2022/04/24 10:51:57;;;;;;;2.20;2.00;;;;;;;25.96;33.99;94433.03;5082450;28;21372;-75
2022/04/24 10:54:31;;;;;;;4.50;1.98;;;;;;;25.38;32.69;94425.97;5085205;28;20197;-74
2022/04/24 10:56:59;;;;;;;4.28;1.80;;;;;;;25.33;33.70;94428.22;5084681;27;20324;-76
2022/04/24 10:59:26;;;;;;;4.00;1.90;;;;;;;25.40;33.04;94424.03;5082982;28;20742;-76
2022/04/24 11:01:55;;;;;;;3.88;1.67;;;;;;;25.64;33.17;94431.97;5086165;28;20280;-77
2022/04/24 11:04:25;;;;;;;2.17;1.90;;;;;;;26.10;32.87;94427.19;5085469;28;20310;-76
2022/04/24 11:06:56;;;;;;;2.35;2.03;;;;;;;26.34;32.50;94429.84;5084676;28;20275;-77
2022/04/24 11:09:30;;;;;;;3.83;1.77;;;;;;;26.32;33.07;94426.56;5082935;28;20205;-77
2022/04/24 11:12:01;;;;;;;3.60;1.73;;;;;;;26.40;32.42;94423.97;5082812;28;20202;-77
2022/04/24 11:14:30;;;;;;;5.28;2.22;;;;;;;26.45;32.28;94412.25;5084279;28;20185;-78
2022/04/24 11:16:58;;;;;;;5.05;2.35;;;;;;;26.27;31.72;94407.97;5085734;28;20229;-74
2022/04/24 11:19:26;;;;;;;8.73;4.43;;;;;;;26.31;31.81;94404.09;5084586;28;20221;-74
2022/04/24 11:21:57;;;;;;;2.60;2.00;;;;;;;26.48;32.12;94399.69;5085774;28;20217;-74
2022/04/24 11:24:26;;;;;;;2.75;2.08;;;;;;;26.25;31.60;94393.47;5082080;28;20341;-74
2022/04/24 11:26:53;;;;;;;4.22;2.42;;;;;;;25.85;31.63;94386.47;5086560;28;20206;-75
2022/04/24 11:29:22;;;;;;;3.20;2.08;;;;;;;25.49;31.93;94386.66;5056171;28;20937;-73
2022/04/24 11:31:51;;;;;;;4.00;1.60;;;;;;;25.79;32.12;94385.31;5083415;28;20197;-74
2022/04/24 11:34:19;;;;;;;4.68;2.55;;;;;;;26.50;31.57;94381.28;5081643;28;20274;-75
2022/04/24 11:36:47;;;;;;;4.43;2.35;;;;;;;26.97;30.51;94387.44;5082227;28;20252;-75